Harmans, Maryland
Current Conditions -  °F | °C
As of 10:54 AM on Wednesday 28 Jan 2015 (Local Time) from KBWI Reporting Station
Clear Clear  
Wind Chill: 22°   Ceiling: Unl
Heat Index: 30°   Visibility: 10mi
Dew Point:   Wind: 9mph
Humidity: 33%   Direction: 320°NW
Pressure: 30.21"   Gusts: 21mph
Location:  39.16°N, 76.7°W
Report Text: KBWI 281554Z 32008G18KT 10SM CLR M01/M16 A3021 RMK AO2 SLP231 T10111156
Loading
Personal Weather Stations






























Interactive Weather Map New forecast layout! Learn more

10-Day Weather Forecast

Advertisements
Track Severe Weather on mobile